Time;durP1;ratioP1;P1;durP2;ratioP2;P2;SDS_P1;SDS_P2;PMS_P1;PMS_P2;Temp;Humidity;BMP_temperature;BMP_pressure;BME280_temperature;BME280_humidity;BME280_pressure;Samples;Min_cycle;Max_cycle;Signal;HPM_P1;HPM_P2
2023/12/11 00:00:35;;;;;;;25.17;3.67;;;;;;;;;;5282901;28;20020;-80
2023/12/11 00:03:07;;;;;;;22.02;3.53;;;;;;;;;;5283932;28;20020;-79
2023/12/11 00:05:38;;;;;;;23.88;3.97;;;;;;;;;;5284083;28;20021;-80
2023/12/11 00:08:10;;;;;;;24.83;3.03;;;;;;;;;;5283484;28;20070;-79
2023/12/11 00:10:41;;;;;;;26.50;4.63;;;;;;;;;;5283885;28;20047;-80
2023/12/11 00:13:12;;;;;;;21.60;3.42;;;;;;;;;;5283896;28;20019;-79
2023/12/11 00:15:43;;;;;;;18.30;2.65;;;;;;;;;;5282972;28;20074;-80
2023/12/11 00:18:15;;;;;;;26.45;3.70;;;;;;;;;;5283894;28;20020;-80
2023/12/11 00:20:46;;;;;;;21.90;3.92;;;;;;;;;;5283968;28;20370;-80
2023/12/11 00:23:17;;;;;;;26.35;4.68;;;;;;;;;;5282982;28;20057;-80
2023/12/11 00:25:49;;;;;;;24.50;4.13;;;;;;;;;;5283438;28;20108;-80
2023/12/11 00:28:20;;;;;;;26.60;4.68;;;;;;;;;;5282589;28;20422;-80
2023/12/11 00:30:51;;;;;;;29.38;3.97;;;;;;;;;;5283282;28;20398;-80
2023/12/11 00:33:23;;;;;;;21.85;3.53;;;;;;;;;;5283289;28;20110;-79
2023/12/11 00:35:54;;;;;;;33.55;4.15;;;;;;;;;;5282872;28;20056;-80
2023/12/11 00:38:25;;;;;;;24.55;3.70;;;;;;;;;;5282908;28;20049;-80
2023/12/11 00:40:56;;;;;;;30.35;4.35;;;;;;;;;;5283521;28;20102;-80
2023/12/11 00:43:27;;;;;;;28.40;4.78;;;;;;;;;;5282608;28;20047;-80
2023/12/11 00:45:59;;;;;;;21.02;3.25;;;;;;;;;;5283034;28;20099;-80
2023/12/11 00:48:30;;;;;;;22.80;3.30;;;;;;;;;;5283086;28;20514;-80
2023/12/11 00:51:01;;;;;;;25.20;4.63;;;;;;;;;;5282183;28;20116;-80
2023/12/11 00:53:32;;;;;;;31.73;4.22;;;;;;;;;;5282871;28;20031;-80
2023/12/11 00:56:04;;;;;;;27.00;3.85;;;;;;;;;;5283164;28;20017;-80
2023/12/11 00:58:35;;;;;;;26.48;4.50;;;;;;;;;;5282459;28;20023;-80
2023/12/11 01:01:06;;;;;;;29.58;4.07;;;;;;;;;;5282783;28;20426;-80
2023/12/11 01:03:39;;;;;;;24.08;3.90;;;;;;;;;;5282350;28;20012;-80
2023/12/11 01:06:10;;;;;;;30.15;3.13;;;;;;;;;;5283235;28;20024;-80
2023/12/11 01:08:41;;;;;;;22.75;3.85;;;;;;;;;;5284012;28;20027;-80
2023/12/11 01:11:13;;;;;;;30.65;4.18;;;;;;;;;;5281627;28;20063;-80
2023/12/11 01:13:44;;;;;;;30.55;4.68;;;;;;;;;;5282831;28;20399;-81
2023/12/11 01:16:15;;;;;;;25.35;3.65;;;;;;;;;;5282819;28;20355;-80
2023/12/11 01:18:46;;;;;;;27.50;4.65;;;;;;;;;;5281829;28;20024;-80
2023/12/11 01:21:18;;;;;;;26.58;4.78;;;;;;;;;;5281229;28;20024;-80
2023/12/11 01:23:49;;;;;;;22.63;3.70;;;;;;;;;;5282519;28;20020;-81
2023/12/11 01:26:20;;;;;;;28.63;4.10;;;;;;;;;;5281538;28;20134;-80
2023/12/11 01:28:51;;;;;;;28.90;5.32;;;;;;;;;;5282673;28;20056;-80
2023/12/11 01:31:23;;;;;;;28.50;3.90;;;;;;;;;;5281482;28;20079;-79
2023/12/11 01:33:54;;;;;;;26.38;4.00;;;;;;;;;;5282601;28;20055;-79
2023/12/11 01:36:25;;;;;;;26.00;4.55;;;;;;;;;;5282310;28;20070;-79
2023/12/11 01:38:56;;;;;;;24.27;3.33;;;;;;;;;;5281560;28;20471;-79
2023/12/11 01:41:28;;;;;;;27.52;3.97;;;;;;;;;;5282573;28;20123;-79
2023/12/11 01:43:59;;;;;;;27.88;5.15;;;;;;;;;;5282172;28;20065;-79
2023/12/11 01:46:30;;;;;;;20.80;2.92;;;;;;;;;;5281660;28;20529;-80
2023/12/11 01:49:02;;;;;;;19.58;3.58;;;;;;;;;;5281694;28;20178;-80
2023/12/11 01:51:34;;;;;;;27.13;4.40;;;;;;;;;;5282043;28;20111;-80
2023/12/11 01:54:06;;;;;;;18.98;2.50;;;;;;;;;;5281682;28;20020;-80
2023/12/11 01:56:37;;;;;;;22.73;3.92;;;;;;;;;;5282029;28;20078;-80
2023/12/11 01:59:09;;;;;;;29.42;3.92;;;;;;;;;;5282204;28;20016;-80
2023/12/11 02:01:40;;;;;;;22.05;3.65;;;;;;;;;;5281167;28;20024;-80
2023/12/11 02:04:11;;;;;;;23.67;3.58;;;;;;;;;;5281790;28;20099;-80
2023/12/11 02:06:43;;;;;;;22.90;3.28;;;;;;;;;;5279740;28;20024;-80
2023/12/11 02:09:14;;;;;;;21.10;3.35;;;;;;;;;;5282081;28;20013;-80
2023/12/11 02:11:45;;;;;;;29.55;3.58;;;;;;;;;;5281840;28;20100;-79
2023/12/11 02:14:16;;;;;;;28.60;3.17;;;;;;;;;;5280966;28;20110;-81
2023/12/11 02:16:48;;;;;;;23.45;3.15;;;;;;;;;;5282108;28;20096;-80
2023/12/11 02:19:19;;;;;;;29.60;4.22;;;;;;;;;;5281782;28;20096;-80
2023/12/11 02:21:51;;;;;;;18.38;3.35;;;;;;;;;;5281261;28;20159;-80
2023/12/11 02:24:26;;;;;;;21.25;3.25;;;;;;;;;;5286114;28;20490;-81
2023/12/11 02:26:57;;;;;;;20.58;2.80;;;;;;;;;;5286110;28;20020;-81
2023/12/11 02:29:28;;;;;;;22.58;3.35;;;;;;;;;;5285242;28;20017;-80
2023/12/11 02:32:00;;;;;;;22.63;3.55;;;;;;;;;;5286112;28;20031;-81
2023/12/11 02:34:31;;;;;;;19.42;2.92;;;;;;;;;;5285937;28;20028;-80
2023/12/11 02:37:02;;;;;;;23.45;3.72;;;;;;;;;;5284824;28;20021;-81
2023/12/11 02:39:33;;;;;;;22.88;3.33;;;;;;;;;;5285731;28;20024;-81
2023/12/11 02:42:05;;;;;;;17.77;2.65;;;;;;;;;;5285295;28;20462;-81
2023/12/11 02:44:36;;;;;;;26.30;3.13;;;;;;;;;;5285383;28;20027;-81
2023/12/11 02:47:07;;;;;;;20.45;3.20;;;;;;;;;;5285610;28;20032;-81
2023/12/11 02:49:38;;;;;;;20.52;3.10;;;;;;;;;;5284638;28;20048;-80
2023/12/11 02:52:10;;;;;;;24.30;2.85;;;;;;;;;;5285186;28;20032;-81
2023/12/11 02:54:41;;;;;;;22.55;3.38;;;;;;;;;;5285646;28;20074;-81
2023/12/11 02:57:12;;;;;;;19.05;2.90;;;;;;;;;;5284365;28;20031;-80
2023/12/11 02:59:43;;;;;;;13.65;2.25;;;;;;;;;;5285336;28;20499;-80
2023/12/11 03:02:15;;;;;;;20.42;2.55;;;;;;;;;;5286665;28;20099;-80
2023/12/11 03:04:46;;;;;;;16.92;2.72;;;;;;;;;;5286784;28;20036;-81
2023/12/11 03:07:17;;;;;;;18.08;2.47;;;;;;;;;;5285400;28;20051;-81
2023/12/11 03:09:48;;;;;;;20.73;2.83;;;;;;;;;;5284242;28;20111;-80
2023/12/11 03:12:19;;;;;;;21.77;3.42;;;;;;;;;;5285033;28;20104;-80
2023/12/11 03:14:51;;;;;;;24.20;3.22;;;;;;;;;;5285196;28;20021;-81
2023/12/11 03:17:22;;;;;;;20.77;3.25;;;;;;;;;;5284113;28;20028;-81
2023/12/11 03:19:53;;;;;;;22.80;3.10;;;;;;;;;;5285155;28;20032;-81
2023/12/11 03:22:25;;;;;;;21.60;3.58;;;;;;;;;;5284679;28;20017;-81
2023/12/11 03:24:56;;;;;;;21.85;2.85;;;;;;;;;;5284277;28;20464;-81
2023/12/11 03:27:27;;;;;;;24.95;3.22;;;;;;;;;;5284537;28;20016;-80
2023/12/11 03:29:59;;;;;;;17.38;2.17;;;;;;;;;;5285118;28;20013;-80
2023/12/11 03:32:30;;;;;;;23.10;3.15;;;;;;;;;;5283952;28;20025;-81
2023/12/11 03:35:02;;;;;;;18.85;2.70;;;;;;;;;;5283956;28;20463;-81
2023/12/11 03:37:33;;;;;;;21.08;2.60;;;;;;;;;;5284705;28;20021;-81
2023/12/11 03:40:04;;;;;;;22.40;3.53;;;;;;;;;;5284361;28;20054;-80
2023/12/11 03:42:36;;;;;;;17.60;2.47;;;;;;;;;;5284528;28;20017;-81
2023/12/11 03:45:07;;;;;;;17.25;2.13;;;;;;;;;;5283954;28;20028;-81
2023/12/11 03:47:38;;;;;;;14.95;1.88;;;;;;;;;;5284746;28;20020;-81
2023/12/11 03:50:09;;;;;;;16.55;2.17;;;;;;;;;;5284105;28;20496;-81
2023/12/11 03:52:41;;;;;;;18.75;1.98;;;;;;;;;;5284169;28;20048;-81
2023/12/11 03:55:12;;;;;;;15.25;1.85;;;;;;;;;;5284464;28;20016;-81
2023/12/11 03:57:43;;;;;;;16.85;3.10;;;;;;;;;;5284306;28;20024;-81
2023/12/11 04:00:14;;;;;;;17.10;2.35;;;;;;;;;;5283949;28;20023;-81
2023/12/11 04:02:46;;;;;;;15.95;2.35;;;;;;;;;;5284256;28;20075;-81
2023/12/11 04:05:17;;;;;;;14.40;1.83;;;;;;;;;;5284560;28;20024;-81
2023/12/11 04:07:48;;;;;;;18.00;1.73;;;;;;;;;;5283539;28;20028;-81
2023/12/11 04:10:19;;;;;;;15.30;1.67;;;;;;;;;;5283802;28;20093;-81
2023/12/11 04:12:51;;;;;;;16.02;2.33;;;;;;;;;;5283997;28;20421;-81
2023/12/11 04:15:22;;;;;;;13.68;1.40;;;;;;;;;;5283488;28;20032;-82
2023/12/11 04:17:53;;;;;;;15.27;2.53;;;;;;;;;;5285281;28;20035;-82
2023/12/11 04:20:24;;;;;;;18.15;2.08;;;;;;;;;;5283428;28;20028;-80
2023/12/11 04:22:56;;;;;;;20.85;3.13;;;;;;;;;;5284251;28;20474;-80
2023/12/11 04:25:27;;;;;;;15.13;1.85;;;;;;;;;;5283368;28;20020;-80
2023/12/11 04:27:58;;;;;;;22.38;2.30;;;;;;;;;;5283185;28;20032;-80
2023/12/11 04:30:30;;;;;;;15.52;2.50;;;;;;;;;;5283778;28;20032;-80
2023/12/11 04:33:01;;;;;;;21.42;2.35;;;;;;;;;;5283469;28;20028;-81
2023/12/11 04:35:32;;;;;;;16.88;2.42;;;;;;;;;;5282714;28;20463;-80
2023/12/11 04:38:03;;;;;;;15.52;2.47;;;;;;;;;;5283363;28;20025;-80
2023/12/11 04:40:35;;;;;;;15.95;2.58;;;;;;;;;;5283915;28;20029;-80
2023/12/11 04:43:06;;;;;;;15.82;2.40;;;;;;;;;;5282847;28;20019;-80
2023/12/11 04:45:37;;;;;;;20.35;3.03;;;;;;;;;;5283678;28;20016;-80
2023/12/11 04:48:08;;;;;;;26.67;3.13;;;;;;;;;;5283164;28;20138;-80
2023/12/11 04:50:39;;;;;;;18.67;1.90;;;;;;;;;;5282329;28;20087;-80
2023/12/11 04:53:11;;;;;;;20.45;2.83;;;;;;;;;;5283267;28;20029;-80
2023/12/11 04:55:42;;;;;;;14.52;2.08;;;;;;;;;;5284723;28;20029;-79
2023/12/11 04:58:13;;;;;;;14.98;1.80;;;;;;;;;;5286625;28;20017;-80
2023/12/11 05:00:44;;;;;;;18.02;2.20;;;;;;;;;;5283443;28;20024;-80
2023/12/11 05:03:15;;;;;;;18.88;3.08;;;;;;;;;;5282681;28;20024;-80
2023/12/11 05:05:47;;;;;;;19.98;2.25;;;;;;;;;;5282731;28;20024;-79
2023/12/11 05:08:18;;;;;;;17.20;2.00;;;;;;;;;;5283144;28;20028;-81
2023/12/11 05:10:49;;;;;;;16.10;2.25;;;;;;;;;;5282501;28;20029;-82
2023/12/11 05:13:20;;;;;;;16.52;1.95;;;;;;;;;;5282782;28;20073;-81
2023/12/11 05:15:52;;;;;;;19.42;2.05;;;;;;;;;;5283178;28;20546;-82
2023/12/11 05:18:23;;;;;;;23.30;2.88;;;;;;;;;;5282735;28;20013;-82
2023/12/11 05:20:54;;;;;;;18.90;1.95;;;;;;;;;;5283927;28;20093;-82
2023/12/11 05:23:25;;;;;;;23.08;3.72;;;;;;;;;;5283072;28;20028;-82
2023/12/11 05:25:56;;;;;;;22.27;2.80;;;;;;;;;;5284429;28;20020;-81
2023/12/11 05:28:28;;;;;;;23.48;3.30;;;;;;;;;;5283207;28;20024;-80
2023/12/11 05:30:59;;;;;;;18.83;2.15;;;;;;;;;;5281994;28;20036;-81
2023/12/11 05:33:30;;;;;;;24.08;3.45;;;;;;;;;;5283168;28;20480;-80
2023/12/11 05:36:01;;;;;;;16.00;2.15;;;;;;;;;;5283761;28;20394;-82
2023/12/11 05:38:33;;;;;;;20.02;1.95;;;;;;;;;;5282617;28;20032;-81
2023/12/11 05:41:04;;;;;;;17.70;2.08;;;;;;;;;;5284172;28;20060;-80
2023/12/11 05:43:35;;;;;;;18.33;2.40;;;;;;;;;;5284311;28;20425;-80
2023/12/11 05:46:07;;;;;;;19.67;2.45;;;;;;;;;;5283238;28;20028;-81
2023/12/11 05:48:38;;;;;;;23.30;2.25;;;;;;;;;;5283172;28;20049;-81
2023/12/11 05:51:10;;;;;;;31.10;3.35;;;;;;;;;;5284590;28;20033;-81
2023/12/11 05:53:41;;;;;;;17.13;2.55;;;;;;;;;;5282965;28;20064;-80
2023/12/11 05:56:12;;;;;;;13.88;2.05;;;;;;;;;;5284924;28;20055;-81
2023/12/11 05:58:44;;;;;;;20.60;2.45;;;;;;;;;;5285096;28;20027;-80
2023/12/11 06:01:15;;;;;;;19.23;2.30;;;;;;;;;;5285277;28;20569;-81
2023/12/11 06:03:46;;;;;;;21.25;2.80;;;;;;;;;;5287004;28;20091;-81
2023/12/11 06:06:18;;;;;;;13.57;2.03;;;;;;;;;;5287049;28;20028;-82
2023/12/11 06:08:50;;;;;;;15.38;1.90;;;;;;;;;;5286957;28;20036;-80
2023/12/11 06:11:21;;;;;;;16.80;2.03;;;;;;;;;;5282049;28;20021;-80
2023/12/11 06:13:52;;;;;;;13.68;1.50;;;;;;;;;;5281877;28;20417;-81
2023/12/11 06:16:24;;;;;;;21.00;2.67;;;;;;;;;;5282336;28;20110;-81
2023/12/11 06:18:55;;;;;;;16.75;2.17;;;;;;;;;;5283137;28;20383;-83
2023/12/11 06:21:26;;;;;;;20.65;2.20;;;;;;;;;;5281106;28;20369;-82
2023/12/11 06:23:57;;;;;;;17.33;2.35;;;;;;;;;;5282385;28;20012;-82
2023/12/11 06:26:29;;;;;;;16.75;2.28;;;;;;;;;;5282025;28;20420;-82
2023/12/11 06:29:01;;;;;;;16.58;2.15;;;;;;;;;;5281912;28;20383;-82
2023/12/11 06:31:32;;;;;;;16.05;2.17;;;;;;;;;;5283351;28;20028;-82
2023/12/11 06:34:03;;;;;;;17.88;2.25;;;;;;;;;;5281589;28;20067;-82
2023/12/11 06:36:34;;;;;;;18.27;1.65;;;;;;;;;;5282210;28;20048;-82
2023/12/11 06:39:06;;;;;;;16.92;2.20;;;;;;;;;;5282599;28;20104;-81
2023/12/11 06:41:37;;;;;;;16.67;2.17;;;;;;;;;;5281622;28;20094;-81
2023/12/11 06:44:09;;;;;;;18.75;3.15;;;;;;;;;;5281663;28;20012;-80
2023/12/11 06:46:40;;;;;;;19.25;3.00;;;;;;;;;;5281750;28;20020;-80
2023/12/11 06:49:12;;;;;;;15.07;1.63;;;;;;;;;;5280403;28;20517;-80
2023/12/11 06:51:43;;;;;;;20.95;3.05;;;;;;;;;;5282139;28;20024;-80
2023/12/11 06:54:14;;;;;;;19.55;2.67;;;;;;;;;;5282112;28;20016;-80
2023/12/11 06:56:45;;;;;;;16.95;2.60;;;;;;;;;;5280643;28;20483;-80
2023/12/11 06:59:17;;;;;;;18.98;3.38;;;;;;;;;;5281926;28;20058;-82
2023/12/11 07:01:48;;;;;;;16.65;1.92;;;;;;;;;;5281546;28;20028;-84
2023/12/11 07:04:19;;;;;;;12.75;1.42;;;;;;;;;;5282809;28;20013;-82
2023/12/11 07:06:51;;;;;;;15.98;2.10;;;;;;;;;;5281674;28;20020;-83
2023/12/11 07:09:22;;;;;;;14.60;1.70;;;;;;;;;;5280844;28;20483;-82
2023/12/11 07:11:53;;;;;;;12.85;1.90;;;;;;;;;;5285189;28;20028;-80
2023/12/11 07:14:25;;;;;;;17.30;2.05;;;;;;;;;;5284427;28;20088;-83
2023/12/11 07:16:56;;;;;;;15.13;2.13;;;;;;;;;;5284038;28;20024;-82
2023/12/11 07:19:27;;;;;;;16.45;2.20;;;;;;;;;;5284825;28;20460;-81
2023/12/11 07:21:59;;;;;;;16.55;2.92;;;;;;;;;;5284793;28;20016;-80
2023/12/11 07:24:30;;;;;;;13.25;1.85;;;;;;;;;;5284332;28;20024;-82
2023/12/11 07:27:01;;;;;;;11.38;1.73;;;;;;;;;;5284559;28;20115;-84
2023/12/11 07:29:33;;;;;;;15.65;1.70;;;;;;;;;;5284713;28;20027;-82
2023/12/11 07:32:04;;;;;;;15.93;2.22;;;;;;;;;;5283850;28;20074;-83
2023/12/11 07:34:35;;;;;;;13.52;1.10;;;;;;;;;;5284961;28;20021;-84
2023/12/11 07:37:07;;;;;;;14.27;1.40;;;;;;;;;;5283836;28;20482;-83
2023/12/11 07:39:38;;;;;;;16.33;2.13;;;;;;;;;;5284919;28;20550;-83
2023/12/11 07:42:10;;;;;;;15.02;1.65;;;;;;;;;;5284396;28;20024;-84
2023/12/11 07:44:41;;;;;;;16.38;1.25;;;;;;;;;;5283851;28;20108;-82
2023/12/11 07:47:12;;;;;;;13.05;1.30;;;;;;;;;;5283901;28;20019;-84
2023/12/11 07:49:43;;;;;;;13.90;1.70;;;;;;;;;;5283856;28;20558;-81
2023/12/11 07:52:15;;;;;;;12.57;1.60;;;;;;;;;;5283402;28;20028;-81
2023/12/11 07:54:46;;;;;;;15.75;1.50;;;;;;;;;;5284038;28;20016;-82
2023/12/11 07:57:18;;;;;;;12.73;1.77;;;;;;;;;;5283959;28;20025;-84
2023/12/11 07:59:50;;;;;;;13.40;1.60;;;;;;;;;;5283324;28;20016;-84
2023/12/11 08:02:21;;;;;;;13.23;1.60;;;;;;;;;;5283694;28;20024;-82
2023/12/11 08:04:52;;;;;;;13.15;1.15;;;;;;;;;;5284184;28;20020;-83
2023/12/11 08:07:23;;;;;;;15.38;1.83;;;;;;;;;;5283063;28;20025;-82
2023/12/11 08:09:54;;;;;;;11.07;1.10;;;;;;;;;;5284205;28;20021;-82
2023/12/11 08:12:26;;;;;;;10.32;1.52;;;;;;;;;;5283210;28;20030;-83
2023/12/11 08:14:57;;;;;;;10.88;1.40;;;;;;;;;;5284530;28;20024;-84
2023/12/11 08:17:29;;;;;;;8.38;1.10;;;;;;;;;;5283934;28;20025;-81
2023/12/11 08:20:00;;;;;;;12.65;1.60;;;;;;;;;;5282677;28;20031;-81
2023/12/11 08:22:31;;;;;;;15.90;1.20;;;;;;;;;;5283401;28;20115;-81
2023/12/11 08:25:03;;;;;;;11.85;1.60;;;;;;;;;;5275682;22;20579;-82
2023/12/11 08:27:35;;;;;;;11.38;0.98;;;;;;;;;;5261733;28;20031;-81
2023/12/11 08:30:06;;;;;;;11.27;1.25;;;;;;;;;;5262865;28;20025;-79
2023/12/11 08:32:38;;;;;;;12.57;1.25;;;;;;;;;;5262584;28;20025;-82
2023/12/11 08:35:10;;;;;;;12.70;2.03;;;;;;;;;;5261557;28;20025;-82
2023/12/11 08:37:41;;;;;;;9.25;1.23;;;;;;;;;;5262622;28;20434;-81
2023/12/11 08:40:13;;;;;;;7.93;0.88;;;;;;;;;;5262525;28;20029;-79
2023/12/11 08:42:44;;;;;;;6.95;0.90;;;;;;;;;;5261687;28;20025;-79
2023/12/11 08:45:15;;;;;;;11.80;1.00;;;;;;;;;;5263768;28;20322;-82
2023/12/11 08:47:46;;;;;;;13.07;2.15;;;;;;;;;;5265678;28;20010;-78
2023/12/11 08:50:17;;;;;;;8.50;1.38;;;;;;;;;;5262513;28;20033;-81
2023/12/11 08:52:49;;;;;;;10.43;1.02;;;;;;;;;;5258845;28;20017;-81
2023/12/11 08:55:23;;;;;;;11.07;1.80;;;;;;;;;;5248568;28;20489;-79
2023/12/11 08:57:55;;;;;;;9.95;1.20;;;;;;;;;;5262292;28;20454;-79
2023/12/11 09:00:26;;;;;;;10.80;1.70;;;;;;;;;;5261574;28;20101;-80
2023/12/11 09:02:57;;;;;;;11.88;1.40;;;;;;;;;;5260786;28;20013;-81
2023/12/11 09:05:28;;;;;;;12.07;1.65;;;;;;;;;;5260396;28;20028;-79
2023/12/11 09:08:00;;;;;;;9.65;1.08;;;;;;;;;;5261514;28;20066;-79
2023/12/11 09:10:31;;;;;;;12.55;1.20;;;;;;;;;;5260599;28;20505;-82
2023/12/11 09:13:02;;;;;;;11.60;1.85;;;;;;;;;;5256323;28;20020;-81
2023/12/11 09:15:33;;;;;;;10.88;1.10;;;;;;;;;;5260848;28;20029;-79
2023/12/11 09:18:06;;;;;;;7.20;0.82;;;;;;;;;;5261386;28;20021;-78
2023/12/11 09:20:37;;;;;;;13.15;1.63;;;;;;;;;;5261569;28;20041;-77
2023/12/11 09:23:09;;;;;;;8.60;0.95;;;;;;;;;;5260583;28;20084;-78
2023/12/11 09:25:41;;;;;;;8.07;0.90;;;;;;;;;;5256256;28;20369;-78
2023/12/11 09:28:12;;;;;;;8.32;1.35;;;;;;;;;;5257473;28;20036;-78
2023/12/11 09:30:43;;;;;;;5.13;0.50;;;;;;;;;;5261035;28;20021;-77
2023/12/11 09:33:15;;;;;;;10.90;0.60;;;;;;;;;;5260740;28;20025;-80
2023/12/11 09:35:46;;;;;;;6.28;0.80;;;;;;;;;;5261337;28;20024;-82
2023/12/11 09:38:17;;;;;;;5.63;0.52;;;;;;;;;;5259287;28;20025;-81
2023/12/11 09:40:49;;;;;;;8.13;0.82;;;;;;;;;;5261335;28;20049;-81
2023/12/11 09:43:20;;;;;;;6.97;0.60;;;;;;;;;;5261269;28;20028;-80
2023/12/11 09:45:53;;;;;;;7.50;0.82;;;;;;;;;;5260762;28;20044;-81
2023/12/11 09:48:24;;;;;;;9.82;0.90;;;;;;;;;;5260836;28;20041;-81
2023/12/11 09:50:57;;;;;;;6.18;0.60;;;;;;;;;;5260484;28;20559;-81
2023/12/11 09:53:32;;;;;;;4.90;0.75;;;;;;;;;;5261147;28;20079;-81
2023/12/11 09:56:03;;;;;;;8.05;0.80;;;;;;;;;;5260976;28;20475;-80
2023/12/11 09:58:35;;;;;;;8.18;0.63;;;;;;;;;;5260451;28;20024;-82
2023/12/11 10:01:09;;;;;;;6.55;0.90;;;;;;;;;;5261015;28;20028;-78
2023/12/11 10:03:40;;;;;;;9.45;0.95;;;;;;;;;;5261126;28;20076;-79
2023/12/11 10:06:12;;;;;;;9.80;1.38;;;;;;;;;;5260413;28;20029;-81
2023/12/11 10:08:44;;;;;;;6.35;0.70;;;;;;;;;;5260765;28;20019;-81
2023/12/11 10:11:16;;;;;;;7.82;0.60;;;;;;;;;;5260824;28;20043;-81
2023/12/11 10:13:47;;;;;;;6.45;0.70;;;;;;;;;;5260299;28;20460;-80
2023/12/11 10:16:28;;;;;;;8.40;0.75;;;;;;;;;;5260898;28;20033;-80
2023/12/11 10:19:02;;;;;;;7.00;1.00;;;;;;;;;;5259990;28;20017;-79
2023/12/11 10:21:40;;;;;;;6.78;0.80;;;;;;;;;;5260809;28;20108;-80
2023/12/11 10:24:14;;;;;;;9.30;1.30;;;;;;;;;;5260526;28;20056;-81
2023/12/11 10:26:46;;;;;;;6.13;0.63;;;;;;;;;;5260095;28;20033;-80
2023/12/11 10:29:18;;;;;;;7.65;0.80;;;;;;;;;;5261003;28;20025;-79
2023/12/11 10:31:50;;;;;;;5.32;0.75;;;;;;;;;;5260570;28;20044;-79
2023/12/11 10:34:39;;;;;;;6.47;0.82;;;;;;;;;;5259781;28;20025;-78
2023/12/11 10:37:10;;;;;;;5.38;0.52;;;;;;;;;;5260801;28;20051;-80
2023/12/11 10:40:00;;;;;;;5.70;0.60;;;;;;;;;;5265133;28;20041;-81
2023/12/11 10:42:33;;;;;;;4.10;0.60;;;;;;;;;;5265592;28;20032;-79
2023/12/11 10:45:05;;;;;;;5.15;0.65;;;;;;;;;;5264756;28;20453;-79
2023/12/11 10:47:37;;;;;;;7.68;1.23;;;;;;;;;;5264190;28;20013;-80
2023/12/11 10:50:08;;;;;;;8.60;0.90;;;;;;;;;;5264208;28;20056;-82
2023/12/11 10:52:40;;;;;;;7.10;0.88;;;;;;;;;;5264719;28;20528;-84
2023/12/11 10:55:11;;;;;;;9.60;1.05;;;;;;;;;;5263919;28;20143;-85
2023/12/11 10:57:43;;;;;;;7.82;0.60;;;;;;;;;;5264860;28;20380;-86
2023/12/11 11:00:14;;;;;;;12.38;1.00;;;;;;;;;;5264874;28;20025;-87
2023/12/11 11:02:47;;;;;;;8.27;1.05;;;;;;;;;;5264077;28;20029;-84
2023/12/11 11:05:19;;;;;;;6.40;0.60;;;;;;;;;;5264535;28;20032;-86
2023/12/11 11:08:00;;;;;;;7.50;0.65;;;;;;;;;;5268245;28;20013;-85
2023/12/11 11:10:35;;;;;;;4.50;0.55;;;;;;;;;;5265311;28;20031;-86
2023/12/11 11:13:08;;;;;;;6.70;0.50;;;;;;;;;;5264390;28;20056;-86
2023/12/11 11:15:39;;;;;;;7.18;0.90;;;;;;;;;;5263791;28;20071;-86
2023/12/11 11:18:11;;;;;;;8.32;0.70;;;;;;;;;;5264606;28;20435;-85
2023/12/11 11:21:02;;;;;;;4.82;0.40;;;;;;;;;;5264932;28;20017;-85
2023/12/11 11:23:41;;;;;;;5.97;0.57;;;;;;;;;;5263555;28;20060;-86
2023/12/11 11:26:33;;;;;;;7.45;0.50;;;;;;;;;;5264378;28;20393;-86
2023/12/11 11:29:04;;;;;;;4.25;0.50;;;;;;;;;;5264146;28;20013;-85
2023/12/11 11:31:46;;;;;;;2.88;0.32;;;;;;;;;;5263592;28;20074;-84
2023/12/11 11:34:36;;;;;;;4.53;0.30;;;;;;;;;;5264052;28;20027;-85
2023/12/11 11:37:08;;;;;;;3.63;0.30;;;;;;;;;;5263635;28;20051;-83
2023/12/11 11:39:54;;;;;;;2.92;0.20;;;;;;;;;;5264341;28;20098;-84
2023/12/11 11:42:26;;;;;;;3.17;0.20;;;;;;;;;;5264387;28;20025;-86
2023/12/11 11:44:58;;;;;;;3.88;0.30;;;;;;;;;;5263097;28;20361;-84
2023/12/11 11:47:29;;;;;;;2.95;0.30;;;;;;;;;;5263907;28;20174;-84
2023/12/11 11:50:09;;;;;;;2.17;0.68;;;;;;;;;;5263789;28;20021;-87
2023/12/11 11:52:42;;;;;;;3.25;0.40;;;;;;;;;;5263222;28;20379;-85
2023/12/11 11:55:27;;;;;;;3.00;0.38;;;;;;;;;;5262921;28;20017;-85
2023/12/11 11:57:58;;;;;;;2.25;0.30;;;;;;;;;;5262828;28;20151;-84
2023/12/11 12:00:29;;;;;;;3.53;0.47;;;;;;;;;;5263353;28;20107;-85
2023/12/11 12:03:05;;;;;;;3.53;0.60;;;;;;;;;;5263157;28;20383;-85
2023/12/11 12:05:36;;;;;;;4.22;0.40;;;;;;;;;;5262643;28;20020;-87
2023/12/11 12:08:08;;;;;;;3.40;0.30;;;;;;;;;;5263550;28;20040;-86
2023/12/11 12:10:40;;;;;;;4.72;0.40;;;;;;;;;;5263352;28;20029;-87
2023/12/11 12:13:11;;;;;;;3.40;0.40;;;;;;;;;;5262433;28;20028;-84
2023/12/11 12:15:44;;;;;;;3.85;0.40;;;;;;;;;;5263007;28;20028;-84
2023/12/11 12:18:15;;;;;;;4.07;0.45;;;;;;;;;;5263579;28;20021;-85
2023/12/11 12:20:59;;;;;;;4.78;0.40;;;;;;;;;;5262930;28;20088;-84
2023/12/11 12:23:31;;;;;;;4.82;0.50;;;;;;;;;;5262947;28;20032;-85
2023/12/11 12:26:03;;;;;;;3.53;0.30;;;;;;;;;;5262107;28;20029;-85
2023/12/11 12:28:34;;;;;;;3.55;0.30;;;;;;;;;;5262560;28;20492;-85
2023/12/11 12:31:05;;;;;;;2.45;0.25;;;;;;;;;;5263466;28;20037;-85
2023/12/11 12:33:37;;;;;;;6.03;0.40;;;;;;;;;;5271695;28;20010;-85
2023/12/11 12:36:08;;;;;;;2.95;0.30;;;;;;;;;;5267226;28;20052;-85
2023/12/11 12:38:39;;;;;;;4.43;0.30;;;;;;;;;;5263060;28;20087;-85
2023/12/11 12:41:11;;;;;;;3.55;0.35;;;;;;;;;;5259869;28;20039;-85
2023/12/11 12:43:42;;;;;;;3.20;0.40;;;;;;;;;;5244244;28;20025;-85
2023/12/11 12:46:14;;;;;;;4.35;0.40;;;;;;;;;;5260892;28;20101;-84
2023/12/11 12:48:45;;;;;;;3.33;0.40;;;;;;;;;;5257005;28;20024;-85
2023/12/11 12:51:17;;;;;;;6.40;0.43;;;;;;;;;;5253221;28;20672;-85
2023/12/11 12:53:49;;;;;;;2.72;0.55;;;;;;;;;;5260827;28;20072;-85
2023/12/11 12:56:20;;;;;;;5.07;0.50;;;;;;;;;;5261670;28;20350;-84
2023/12/11 12:58:55;;;;;;;2.08;0.30;;;;;;;;;;5262518;28;20421;-85
2023/12/11 13:01:26;;;;;;;2.25;0.30;;;;;;;;;;5261542;28;20028;-84
2023/12/11 13:04:01;;;;;;;2.88;0.40;;;;;;;;;;5262603;28;20021;-85
2023/12/11 13:06:32;;;;;;;2.95;0.30;;;;;;;;;;5259589;28;20101;-85
2023/12/11 13:09:04;;;;;;;3.15;0.30;;;;;;;;;;5260601;28;20100;-85
2023/12/11 13:11:42;;;;;;;2.30;0.22;;;;;;;;;;5261951;28;20029;-85
2023/12/11 13:14:13;;;;;;;2.78;0.30;;;;;;;;;;5261962;28;20025;-85
2023/12/11 13:16:44;;;;;;;3.20;0.30;;;;;;;;;;5261239;28;20360;-85
2023/12/11 13:19:16;;;;;;;3.85;0.43;;;;;;;;;;5261728;28;20075;-85
2023/12/11 13:21:47;;;;;;;3.17;0.30;;;;;;;;;;5261168;28;20290;-84
2023/12/11 13:24:20;;;;;;;2.78;0.30;;;;;;;;;;5258203;28;20119;-84
2023/12/11 13:26:52;;;;;;;2.60;0.20;;;;;;;;;;5256743;28;20468;-84
2023/12/11 13:29:23;;;;;;;3.03;0.20;;;;;;;;;;5261442;28;20029;-86
2023/12/11 13:31:56;;;;;;;5.53;0.32;;;;;;;;;;5262021;28;20032;-86
2023/12/11 13:34:27;;;;;;;3.17;0.40;;;;;;;;;;5258928;28;20123;-84
2023/12/11 13:36:59;;;;;;;7.13;0.70;;;;;;;;;;5259924;28;20020;-85
2023/12/11 13:39:30;;;;;;;5.75;0.50;;;;;;;;;;5261462;28;20013;-86
2023/12/11 13:42:02;;;;;;;4.18;0.50;;;;;;;;;;5261167;28;20512;-86
2023/12/11 13:44:33;;;;;;;6.22;0.52;;;;;;;;;;5260769;28;20476;-85
2023/12/11 13:47:04;;;;;;;5.47;0.50;;;;;;;;;;5261838;28;20017;-86
2023/12/11 13:49:35;;;;;;;5.95;0.73;;;;;;;;;;5261411;28;20049;-86
2023/12/11 13:52:07;;;;;;;4.93;0.52;;;;;;;;;;5259526;28;20040;-85
2023/12/11 13:54:38;;;;;;;4.28;0.45;;;;;;;;;;5261144;28;20017;-85
2023/12/11 13:57:09;;;;;;;7.10;0.50;;;;;;;;;;5260802;28;20036;-85
2023/12/11 13:59:40;;;;;;;4.07;0.50;;;;;;;;;;5261911;28;20438;-86
2023/12/11 14:02:11;;;;;;;3.20;0.35;;;;;;;;;;5261290;28;20107;-85
2023/12/11 14:04:44;;;;;;;5.72;0.30;;;;;;;;;;5260717;28;20464;-85
2023/12/11 14:07:18;;;;;;;3.58;0.43;;;;;;;;;;5261041;28;20013;-85
2023/12/11 14:09:49;;;;;;;2.38;0.22;;;;;;;;;;5261536;28;20490;-86
2023/12/11 14:12:20;;;;;;;3.45;0.50;;;;;;;;;;5260505;28;20464;-86
2023/12/11 14:14:51;;;;;;;4.65;0.50;;;;;;;;;;5261789;28;20017;-85
2023/12/11 14:17:23;;;;;;;4.60;0.38;;;;;;;;;;5261297;28;20428;-84
2023/12/11 14:19:54;;;;;;;5.20;0.30;;;;;;;;;;5264815;28;20017;-84
2023/12/11 14:22:25;;;;;;;2.97;0.40;;;;;;;;;;5265197;28;20096;-85
2023/12/11 14:24:56;;;;;;;2.30;0.40;;;;;;;;;;5266509;28;20128;-81
2023/12/11 14:27:28;;;;;;;5.72;0.52;;;;;;;;;;5267614;28;20025;-86
2023/12/11 14:29:59;;;;;;;4.22;0.40;;;;;;;;;;5266893;28;20112;-75
2023/12/11 14:32:31;;;;;;;3.88;0.40;;;;;;;;;;5264463;28;20029;-81
2023/12/11 14:35:02;;;;;;;6.25;0.43;;;;;;;;;;5265266;28;20009;-85
2023/12/11 14:37:34;;;;;;;3.22;0.40;;;;;;;;;;5264647;28;20071;-82
2023/12/11 14:40:06;;;;;;;3.22;0.40;;;;;;;;;;5263670;28;20100;-82
2023/12/11 14:42:37;;;;;;;3.97;0.73;;;;;;;;;;5263804;28;20062;-82
2023/12/11 14:45:08;;;;;;;4.78;0.90;;;;;;;;;;5264661;28;20476;-80
2023/12/11 14:47:40;;;;;;;6.03;0.50;;;;;;;;;;5263864;28;20032;-83
2023/12/11 14:50:11;;;;;;;5.63;0.70;;;;;;;;;;5264541;28;20033;-83
2023/12/11 14:52:42;;;;;;;6.68;0.60;;;;;;;;;;5264265;28;20020;-83
2023/12/11 14:55:13;;;;;;;4.15;0.60;;;;;;;;;;5263852;28;20013;-82
2023/12/11 14:57:44;;;;;;;7.70;0.65;;;;;;;;;;5264780;28;20077;-82
2023/12/11 15:00:16;;;;;;;6.43;0.80;;;;;;;;;;5263631;28;20025;-82
2023/12/11 15:02:47;;;;;;;6.57;0.70;;;;;;;;;;5264270;28;20025;-82